createdAt,value
2019-03-02T18:08:08.809Z,1009.30
2019-03-02T18:09:05.989Z,1009.28
2019-03-02T18:10:06.004Z,1009.26
2019-03-02T18:11:05.980Z,1009.28
2019-03-02T18:12:06.015Z,1009.27
2019-03-02T18:13:07.078Z,1009.26
2019-03-02T18:14:05.996Z,1009.24
2019-03-02T18:15:06.145Z,1009.24
2019-03-02T18:16:06.719Z,1009.23
2019-03-02T18:17:06.060Z,1009.26
2019-03-02T18:18:06.054Z,1009.26
2019-03-02T18:19:07.208Z,1009.22
2019-03-02T18:20:06.136Z,1009.26
2019-03-02T18:21:06.023Z,1009.25
2019-03-02T18:22:06.413Z,1009.24
2019-03-02T18:23:06.066Z,1009.24
2019-03-02T18:24:06.055Z,1009.25
2019-03-02T18:25:07.817Z,1009.21
2019-03-02T18:26:06.070Z,1009.27
2019-03-02T18:27:06.089Z,1009.23
2019-03-02T18:28:06.154Z,1009.22
2019-03-02T18:29:06.063Z,1009.22
2019-03-02T18:30:06.390Z,1009.20
2019-03-02T18:31:06.108Z,1009.16
2019-03-02T18:32:06.072Z,1009.16
2019-03-02T18:33:07.626Z,1009.16
2019-03-02T18:34:06.086Z,1009.17
2019-03-02T18:35:06.127Z,1009.12
2019-03-02T18:36:09.860Z,1009.12
2019-03-02T18:37:06.228Z,1009.09
2019-03-02T18:38:08.884Z,1009.09
2019-03-02T18:39:06.189Z,1009.05
2019-03-02T18:40:06.127Z,1009.06
2019-03-02T18:41:06.197Z,1009.05
2019-03-02T18:42:06.199Z,1009.06
2019-03-02T18:43:08.149Z,1009.03
2019-03-02T18:44:06.138Z,1009.03
2019-03-02T18:45:06.158Z,1009.01
2019-03-02T18:46:06.144Z,1008.99
2019-03-02T18:47:06.185Z,1009.00
2019-03-02T18:48:06.193Z,1008.97
2019-03-02T18:49:11.511Z,1009.00
2019-03-02T18:50:06.353Z,1008.99
2019-03-02T18:51:08.157Z,1009.00
2019-03-02T18:52:06.189Z,1008.99
2019-03-02T18:53:06.283Z,1009.04
2019-03-02T18:54:07.681Z,1009.05
2019-03-02T18:55:06.847Z,1008.99
2019-03-02T18:56:06.237Z,1009.00
2019-03-02T18:57:09.650Z,1009.00
2019-03-02T18:58:06.217Z,1008.97
2019-03-02T18:59:07.800Z,1008.95
2019-03-02T19:00:06.214Z,1008.96
2019-03-02T19:01:06.239Z,1008.99
2019-03-02T19:02:11.497Z,1008.99
2019-03-02T19:03:06.253Z,1008.99
2019-03-02T19:04:06.327Z,1009.02
2019-03-02T19:05:06.255Z,1008.99
2019-03-02T19:06:06.243Z,1008.95
2019-03-02T19:07:06.224Z,1008.94
2019-03-02T19:08:06.260Z,1008.94
2019-03-02T19:09:06.280Z,1008.88
2019-03-02T19:10:07.798Z,1008.91
2019-03-02T19:11:06.677Z,1008.89
2019-03-02T19:12:06.263Z,1008.89
2019-03-02T19:13:08.335Z,1008.89
2019-03-02T19:14:06.443Z,1008.89
2019-03-02T19:15:06.293Z,1008.84
2019-03-02T19:16:06.271Z,1008.90
2019-03-02T19:17:06.289Z,1008.85
2019-03-02T19:18:06.283Z,1008.86
2019-03-02T19:19:06.287Z,1008.81
2019-03-02T19:20:06.356Z,1008.79
2019-03-02T19:21:06.288Z,1008.81
2019-03-02T19:22:06.297Z,1008.80
2019-03-02T19:23:06.296Z,1008.74
2019-03-02T19:24:06.319Z,1008.75
2019-03-02T19:25:06.313Z,1008.77
2019-03-02T19:26:06.970Z,1008.75
2019-03-02T19:27:06.353Z,1008.70
2019-03-02T19:28:06.342Z,1008.73
2019-03-02T19:29:06.361Z,1008.68
2019-03-02T19:30:06.341Z,1008.67
2019-03-02T19:31:06.348Z,1008.63
2019-03-02T19:32:06.404Z,1008.58
2019-03-02T19:33:06.557Z,1008.56
2019-03-02T19:34:06.344Z,1008.57
2019-03-02T19:35:07.189Z,1008.57
2019-03-02T19:36:06.531Z,1008.56
2019-03-02T19:37:06.476Z,1008.52
2019-03-02T19:38:06.453Z,1008.54
2019-03-02T19:39:06.373Z,1008.49
2019-03-02T19:40:06.402Z,1008.48
2019-03-02T19:41:06.381Z,1008.49
2019-03-02T19:42:06.675Z,1008.50
2019-03-02T19:43:06.411Z,1008.47
2019-03-02T19:44:06.402Z,1008.45
2019-03-02T19:45:06.395Z,1008.44
2019-03-02T19:46:06.484Z,1008.46
2019-03-02T19:47:06.452Z,1008.41
2019-03-02T19:48:06.430Z,1008.43
2019-03-02T19:49:06.420Z,1008.45
2019-03-02T19:50:06.426Z,1008.45
2019-03-02T19:51:06.510Z,1008.43
2019-03-02T19:52:06.420Z,1008.41
2019-03-02T19:53:06.431Z,1008.43
2019-03-02T19:54:06.433Z,1008.40
2019-03-02T19:55:06.564Z,1008.39
2019-03-02T19:56:08.248Z,1008.40
2019-03-02T19:57:06.487Z,1008.39
2019-03-02T19:58:06.532Z,1008.40
2019-03-02T19:59:06.614Z,1008.41
2019-03-02T20:00:06.452Z,1008.39
2019-03-02T20:01:06.524Z,1008.43
2019-03-02T20:02:06.480Z,1008.40
2019-03-02T20:03:06.509Z,1008.40
2019-03-02T20:04:06.532Z,1008.39
2019-03-02T20:05:06.484Z,1008.43
2019-03-02T20:06:06.487Z,1008.43
2019-03-02T20:07:06.527Z,1008.40
2019-03-02T20:08:06.567Z,1008.41
2019-03-02T20:09:07.448Z,1008.44
2019-03-02T20:10:06.527Z,1008.41
2019-03-02T20:11:06.509Z,1008.39
2019-03-02T20:12:07.122Z,1008.43
2019-03-02T20:13:06.705Z,1008.39
2019-03-02T20:14:06.518Z,1008.43
2019-03-02T20:15:06.602Z,1008.40
2019-03-02T20:16:06.526Z,1008.41
2019-03-02T20:17:06.699Z,1008.41
2019-03-02T20:18:06.565Z,1008.36
2019-03-02T20:19:06.550Z,1008.33
2019-03-02T20:20:06.549Z,1008.37
2019-03-02T20:21:06.665Z,1008.35
2019-03-02T20:22:06.573Z,1008.36
2019-03-02T20:23:06.674Z,1008.34
2019-03-02T20:24:06.616Z,1008.37
2019-03-02T20:25:06.552Z,1008.34
2019-03-02T20:26:07.587Z,1008.32
2019-03-02T20:27:06.575Z,1008.29
2019-03-02T20:28:06.592Z,1008.29
2019-03-02T20:29:06.610Z,1008.25
2019-03-02T20:30:06.587Z,1008.29
2019-03-02T20:31:06.648Z,1008.24
2019-03-02T20:32:06.610Z,1008.24
2019-03-02T20:33:06.606Z,1008.27
2019-03-02T20:34:06.744Z,1008.29
2019-03-02T20:35:06.619Z,1008.31
2019-03-02T20:36:06.664Z,1008.31
2019-03-02T20:37:06.635Z,1008.25
2019-03-02T20:38:06.630Z,1008.29
2019-03-02T20:39:06.618Z,1008.29
2019-03-02T20:40:06.640Z,1008.30
2019-03-02T20:41:06.643Z,1008.28
2019-03-02T20:42:06.643Z,1008.31
2019-03-02T20:43:06.635Z,1008.29
2019-03-02T20:44:06.655Z,1008.28
2019-03-02T20:45:06.678Z,1008.27
2019-03-02T20:46:06.678Z,1008.23
2019-03-02T20:47:06.686Z,1008.25
2019-03-02T20:48:06.690Z,1008.21
2019-03-02T20:49:06.741Z,1008.18
2019-03-02T20:50:06.923Z,1008.16
2019-03-02T20:51:06.689Z,1008.18
2019-03-02T20:52:06.673Z,1008.17
2019-03-02T20:53:06.812Z,1008.17
2019-03-02T20:54:06.851Z,1008.18
2019-03-02T20:55:06.810Z,1008.15
2019-03-02T20:56:06.692Z,1008.19
2019-03-02T20:57:06.717Z,1008.19
2019-03-02T20:58:06.707Z,1008.15
2019-03-02T20:59:06.810Z,1008.13
2019-03-02T21:00:06.720Z,1008.14
2019-03-02T21:01:06.809Z,1008.13
2019-03-02T21:02:06.755Z,1008.14
2019-03-02T21:03:06.748Z,1008.08
2019-03-02T21:04:06.758Z,1008.07
2019-03-02T21:05:06.754Z,1008.07
2019-03-02T21:06:06.828Z,1008.06
2019-03-02T21:07:06.784Z,1008.05
2019-03-02T21:08:06.764Z,1008.04
2019-03-02T21:09:06.756Z,1008.04
2019-03-02T21:10:06.776Z,1008.02
2019-03-02T21:11:06.764Z,1008.05
2019-03-02T21:12:06.752Z,1008.06
2019-03-02T21:13:07.028Z,1008.05
2019-03-02T21:14:06.795Z,1008.07
2019-03-02T21:15:06.781Z,1008.04
2019-03-02T21:16:06.769Z,1008.02
2019-03-02T21:17:06.777Z,1008.01
2019-03-02T21:18:06.770Z,1008.04
2019-03-02T21:19:07.156Z,1008.02
2019-03-02T21:20:06.968Z,1008.00
2019-03-02T21:21:06.810Z,1007.96
2019-03-02T21:22:06.824Z,1007.94
2019-03-02T21:23:06.851Z,1007.92
2019-03-02T21:24:07.054Z,1007.91
2019-03-02T21:25:06.839Z,1007.97
2019-03-02T21:26:07.084Z,1007.99
2019-03-02T21:27:07.082Z,1007.97
2019-03-02T21:28:07.188Z,1007.95
2019-03-02T21:29:06.825Z,1007.98
2019-03-02T21:30:06.834Z,1007.99
2019-03-02T21:31:06.875Z,1007.96
2019-03-02T21:32:06.853Z,1007.99
2019-03-02T21:33:06.866Z,1007.99
2019-03-02T21:34:07.216Z,1007.99
2019-03-02T21:35:06.854Z,1007.98
2019-03-02T21:36:06.845Z,1007.98
2019-03-02T21:37:06.874Z,1007.98
2019-03-02T21:38:06.871Z,1007.98
2019-03-02T21:39:06.891Z,1007.90
2019-03-02T21:40:06.903Z,1007.92
2019-03-02T21:41:07.106Z,1007.87
2019-03-02T21:42:06.912Z,1007.84
2019-03-02T21:43:06.940Z,1007.86
2019-03-02T21:44:06.900Z,1007.84
2019-03-02T21:45:06.933Z,1007.77
2019-03-02T21:46:06.917Z,1007.81
2019-03-02T21:47:06.934Z,1007.77
2019-03-02T21:48:07.035Z,1007.73
2019-03-02T21:49:06.975Z,1007.76
2019-03-02T21:50:06.931Z,1007.69
2019-03-02T21:51:06.949Z,1007.70
2019-03-02T21:52:06.950Z,1007.71
2019-03-02T21:53:07.052Z,1007.69
2019-03-02T21:54:07.018Z,1007.69
2019-03-02T21:55:06.996Z,1007.68
2019-03-02T21:56:06.946Z,1007.68
2019-03-02T21:57:06.995Z,1007.65
2019-03-02T21:58:07.006Z,1007.65
2019-03-02T21:59:06.958Z,1007.58
2019-03-02T22:00:07.011Z,1007.57
2019-03-02T22:01:07.089Z,1007.54
2019-03-02T22:02:07.009Z,1007.50
2019-03-02T22:03:06.980Z,1007.47
2019-03-02T22:04:06.968Z,1007.49
2019-03-02T22:05:07.072Z,1007.48
2019-03-02T22:06:07.062Z,1007.42
2019-03-02T22:07:07.178Z,1007.40
2019-03-02T22:08:07.107Z,1007.38
2019-03-02T22:09:07.004Z,1007.33
2019-03-02T22:10:07.048Z,1007.35
2019-03-02T22:11:07.023Z,1007.34
2019-03-02T22:12:07.027Z,1007.26
2019-03-02T22:13:07.099Z,1007.25
2019-03-02T22:14:07.059Z,1007.21
2019-03-02T22:15:07.069Z,1007.21
2019-03-02T22:16:07.103Z,1007.19
2019-03-02T22:17:07.040Z,1007.13
2019-03-02T22:18:07.161Z,1007.14
2019-03-02T22:19:07.039Z,1007.12
2019-03-02T22:20:07.063Z,1007.16
2019-03-02T22:21:07.070Z,1007.08
2019-03-02T22:22:07.084Z,1007.07
2019-03-02T22:23:07.107Z,1007.04
2019-03-02T22:24:07.104Z,1006.97
2019-03-02T22:25:07.073Z,1007.06
2019-03-02T22:26:07.134Z,1006.98
2019-03-02T22:27:07.088Z,1007.02
2019-03-02T22:28:07.097Z,1006.98
2019-03-02T22:29:07.170Z,1007.01
2019-03-02T22:30:07.202Z,1007.06
2019-03-02T22:31:07.113Z,1007.02
2019-03-02T22:32:07.134Z,1006.98
2019-03-02T22:33:07.121Z,1006.97
2019-03-02T22:34:07.170Z,1006.97
2019-03-02T22:35:07.121Z,1006.96
2019-03-02T22:36:07.153Z,1006.92
2019-03-02T22:37:07.159Z,1006.92
2019-03-02T22:38:09.464Z,1006.90
2019-03-02T22:39:07.546Z,1006.87
2019-03-02T22:40:07.414Z,1006.89
2019-03-02T22:41:07.209Z,1006.82
2019-03-02T22:42:07.152Z,1006.79
2019-03-02T22:43:07.170Z,1006.77
2019-03-02T22:44:07.157Z,1006.82
2019-03-02T22:45:07.171Z,1006.83
2019-03-02T22:46:07.203Z,1006.80
2019-03-02T22:47:07.160Z,1006.82
2019-03-02T22:48:07.189Z,1006.75
2019-03-02T22:49:07.184Z,1006.74
2019-03-02T22:50:07.219Z,1006.79
2019-03-02T22:51:07.204Z,1006.76
2019-03-02T22:52:07.193Z,1006.81
2019-03-02T22:53:07.191Z,1006.81
2019-03-02T22:54:07.203Z,1006.76
2019-03-02T22:55:07.223Z,1006.81
2019-03-02T22:56:07.263Z,1006.92
2019-03-02T22:57:07.210Z,1006.94
2019-03-02T22:58:07.223Z,1006.95
2019-03-02T22:59:07.233Z,1006.95
2019-03-02T23:00:07.241Z,1006.96
2019-03-02T23:01:07.262Z,1006.93
2019-03-02T23:02:07.303Z,1006.90
2019-03-02T23:03:07.249Z,1006.88
2019-03-02T23:04:07.286Z,1006.89
2019-03-02T23:05:07.251Z,1006.88
2019-03-02T23:06:07.251Z,1006.89
2019-03-02T23:07:07.256Z,1006.88
2019-03-02T23:08:07.291Z,1006.88
2019-03-02T23:09:07.297Z,1006.90
2019-03-02T23:10:07.289Z,1006.89
2019-03-02T23:11:07.291Z,1006.84
2019-03-02T23:12:07.329Z,1006.86
2019-03-02T23:13:07.309Z,1006.80
2019-03-02T23:14:07.286Z,1006.80
2019-03-02T23:15:07.287Z,1006.81
2019-03-02T23:16:07.339Z,1006.82
2019-03-02T23:17:07.319Z,1006.79
2019-03-02T23:18:07.365Z,1006.78
2019-03-02T23:19:07.527Z,1006.78
2019-03-02T23:20:07.332Z,1006.83
2019-03-02T23:21:07.415Z,1006.83
2019-03-02T23:22:07.342Z,1006.84
2019-03-02T23:23:07.335Z,1006.84
2019-03-02T23:24:07.346Z,1006.82
2019-03-02T23:25:07.367Z,1006.81
2019-03-02T23:26:07.373Z,1006.82
2019-03-02T23:27:07.368Z,1006.79
2019-03-02T23:28:07.349Z,1006.70
2019-03-02T23:29:07.433Z,1006.62
2019-03-02T23:30:07.360Z,1006.53
2019-03-02T23:31:07.380Z,1006.49
2019-03-02T23:32:07.366Z,1006.46
2019-03-02T23:33:07.386Z,1006.46
2019-03-02T23:34:07.393Z,1006.50
2019-03-02T23:35:07.404Z,1006.53
2019-03-02T23:36:07.403Z,1006.54
2019-03-02T23:37:07.419Z,1006.48
2019-03-02T23:38:07.392Z,1006.44
2019-03-02T23:39:07.436Z,1006.42
2019-03-02T23:40:07.404Z,1006.37
2019-03-02T23:41:07.441Z,1006.34
2019-03-02T23:42:07.440Z,1006.31
2019-03-02T23:43:07.423Z,1006.34
2019-03-02T23:44:07.435Z,1006.29
2019-03-02T23:45:07.447Z,1006.26
2019-03-02T23:46:07.426Z,1006.25
2019-03-02T23:47:07.455Z,1006.25
2019-03-02T23:48:07.464Z,1006.21
2019-03-02T23:49:07.440Z,1006.21
2019-03-02T23:50:07.552Z,1006.19
